Time;durP1;ratioP1;P1;durP2;ratioP2;P2;SDS_P1;SDS_P2;PMS_P1;PMS_P2;Temp;Humidity;BMP_temperature;BMP_pressure;BME280_temperature;BME280_humidity;BME280_pressure;Samples;Min_cycle;Max_cycle;Signal;HPM_P1;HPM_P2
2023/07/01 00:01:32;;;;;;;5.47;5.07;;;;;;;;;;5044288;28;20033;-64
2023/07/01 00:03:57;;;;;;;5.30;4.90;;;;;;;;;;5043213;28;20435;-64
2023/07/01 00:06:23;;;;;;;5.50;5.00;;;;;;;;;;5044950;28;20634;-64
2023/07/01 00:08:48;;;;;;;5.60;5.20;;;;;;;;;;5044653;28;20492;-64
2023/07/01 00:11:14;;;;;;;5.47;4.95;;;;;;;;;;5043546;28;20036;-64
2023/07/01 00:13:40;;;;;;;5.85;4.85;;;;;;;;;;5044640;28;20052;-64
2023/07/01 00:16:05;;;;;;;5.55;5.05;;;;;;;;;;5044722;28;20052;-64
2023/07/01 00:18:31;;;;;;;5.28;4.88;;;;;;;;;;5044793;28;20029;-64
2023/07/01 00:20:57;;;;;;;5.28;4.88;;;;;;;;;;5042467;28;20040;-64
2023/07/01 00:23:22;;;;;;;6.00;4.85;;;;;;;;;;5044378;28;20048;-64
2023/07/01 00:25:48;;;;;;;6.65;5.28;;;;;;;;;;5044712;28;20047;-65
2023/07/01 00:28:13;;;;;;;5.43;5.00;;;;;;;;;;5041238;28;20047;-64
2023/07/01 00:30:39;;;;;;;5.68;5.07;;;;;;;;;;5057363;28;20059;-64
2023/07/01 00:33:05;;;;;;;5.05;4.65;;;;;;;;;;5060248;28;20052;-64
2023/07/01 00:35:31;;;;;;;5.20;4.80;;;;;;;;;;5043153;28;20037;-64
2023/07/01 00:37:57;;;;;;;5.45;4.95;;;;;;;;;;5041440;28;20039;-64
2023/07/01 00:40:23;;;;;;;5.50;5.10;;;;;;;;;;5043754;28;20416;-64
2023/07/01 00:42:49;;;;;;;5.40;4.95;;;;;;;;;;5045246;28;20033;-64
2023/07/01 00:45:15;;;;;;;5.43;5.03;;;;;;;;;;5043820;28;20047;-64
2023/07/01 00:47:41;;;;;;;5.20;4.80;;;;;;;;;;5044665;28;20037;-64
2023/07/01 00:50:14;;;;;;;5.15;4.72;;;;;;;;;;5042966;28;20111;-64
2023/07/01 00:52:40;;;;;;;5.00;4.60;;;;;;;;;;5044523;28;20524;-64
2023/07/01 00:55:07;;;;;;;5.57;5.07;;;;;;;;;;5037973;28;20039;-64
2023/07/01 00:57:33;;;;;;;5.40;5.00;;;;;;;;;;5042048;28;20086;-64
2023/07/01 00:59:59;;;;;;;5.50;5.13;;;;;;;;;;5042091;28;20037;-64
2023/07/01 01:02:33;;;;;;;7.28;4.93;;;;;;;;;;5040603;28;20488;-64
2023/07/01 01:05:13;;;;;;;4.97;4.53;;;;;;;;;;5043141;28;20037;-64
2023/07/01 01:08:06;;;;;;;5.53;5.13;;;;;;;;;;5043975;28;20037;-65
2023/07/01 01:10:34;;;;;;;5.07;4.68;;;;;;;;;;5073898;28;20622;-64
2023/07/01 01:13:03;;;;;;;6.20;5.07;;;;;;;;;;5045292;28;20036;-64
2023/07/01 01:15:29;;;;;;;5.25;4.85;;;;;;;;;;5032843;28;20476;-64
2023/07/01 01:17:59;;;;;;;5.43;4.95;;;;;;;;;;5049099;28;20048;-64
2023/07/01 01:20:30;;;;;;;5.10;4.70;;;;;;;;;;5063264;28;20064;-64
2023/07/01 01:23:02;;;;;;;4.82;4.43;;;;;;;;;;5049725;28;20086;-64
2023/07/01 01:25:35;;;;;;;7.53;5.03;;;;;;;;;;5051401;28;20043;-64
2023/07/01 01:28:02;;;;;;;5.50;5.00;;;;;;;;;;5051344;28;20036;-64
2023/07/01 01:30:32;;;;;;;5.30;4.90;;;;;;;;;;5050339;28;20059;-65
2023/07/01 01:32:58;;;;;;;5.68;5.22;;;;;;;;;;5049706;28;20032;-64
2023/07/01 01:35:25;;;;;;;5.18;4.78;;;;;;;;;;5050498;28;20041;-65
2023/07/01 01:38:00;;;;;;;5.47;5.07;;;;;;;;;;5048903;28;20044;-65
2023/07/01 01:40:31;;;;;;;6.05;5.45;;;;;;;;;;5050025;28;20028;-65
2023/07/01 01:43:08;;;;;;;5.80;5.13;;;;;;;;;;5049480;28;20033;-64
2023/07/01 01:45:35;;;;;;;5.38;4.97;;;;;;;;;;5064601;28;20071;-65
2023/07/01 01:48:02;;;;;;;5.63;5.18;;;;;;;;;;5049404;28;20646;-65
2023/07/01 01:50:29;;;;;;;5.60;4.97;;;;;;;;;;5065509;28;20036;-65
2023/07/01 01:52:57;;;;;;;7.18;5.25;;;;;;;;;;5050838;28;20649;-65
2023/07/01 01:55:25;;;;;;;5.30;4.80;;;;;;;;;;5045955;28;20106;-65
2023/07/01 01:57:51;;;;;;;5.07;4.75;;;;;;;;;;5049255;28;20340;-64
2023/07/01 02:00:17;;;;;;;6.18;5.35;;;;;;;;;;5048565;28;20068;-65
2023/07/01 02:02:43;;;;;;;5.47;5.07;;;;;;;;;;5049602;28;20076;-65
2023/07/01 02:05:08;;;;;;;5.60;5.10;;;;;;;;;;5047311;28;20111;-64
2023/07/01 02:07:34;;;;;;;5.38;4.97;;;;;;;;;;5050529;28;20041;-64
2023/07/01 02:10:00;;;;;;;5.38;4.97;;;;;;;;;;5050163;28;20500;-64
2023/07/01 02:12:26;;;;;;;5.43;4.93;;;;;;;;;;5030868;28;20408;-64
2023/07/01 02:14:52;;;;;;;5.63;5.13;;;;;;;;;;5038021;28;20437;-64
2023/07/01 02:17:17;;;;;;;5.68;5.13;;;;;;;;;;5042759;28;20033;-65
2023/07/01 02:19:43;;;;;;;7.43;4.80;;;;;;;;;;5065040;28;20044;-65
2023/07/01 02:22:08;;;;;;;5.35;4.80;;;;;;;;;;5057351;28;20124;-64
2023/07/01 02:24:34;;;;;;;4.63;4.28;;;;;;;;;;5047600;28;20040;-64
2023/07/01 02:27:01;;;;;;;4.78;4.38;;;;;;;;;;5047103;28;20566;-65
2023/07/01 02:29:26;;;;;;;12.05;5.32;;;;;;;;;;5046517;28;20110;-64
2023/07/01 02:31:54;;;;;;;5.25;4.82;;;;;;;;;;5038049;28;20057;-65
2023/07/01 02:34:27;;;;;;;7.32;5.22;;;;;;;;;;5044210;28;20103;-64
2023/07/01 02:36:54;;;;;;;5.80;5.30;;;;;;;;;;5055434;28;20466;-64
2023/07/01 02:39:19;;;;;;;4.97;4.65;;;;;;;;;;5044865;28;20151;-64
2023/07/01 02:41:45;;;;;;;5.10;4.70;;;;;;;;;;5057651;28;20037;-64
2023/07/01 02:44:13;;;;;;;8.60;4.78;;;;;;;;;;5046640;28;20041;-64
2023/07/01 02:46:39;;;;;;;5.83;5.30;;;;;;;;;;5062333;28;20098;-64
2023/07/01 02:49:05;;;;;;;5.05;4.72;;;;;;;;;;5038424;28;20045;-64
2023/07/01 02:51:30;;;;;;;5.50;5.10;;;;;;;;;;5041206;28;20036;-65
2023/07/01 02:53:56;;;;;;;6.63;5.55;;;;;;;;;;5061580;28;20044;-64
2023/07/01 02:56:22;;;;;;;5.50;5.00;;;;;;;;;;5077330;28;20484;-64
2023/07/01 02:58:48;;;;;;;5.20;4.80;;;;;;;;;;5045702;28;20072;-64
2023/07/01 03:01:13;;;;;;;5.82;5.25;;;;;;;;;;5046277;28;20028;-64
2023/07/01 03:03:40;;;;;;;5.93;5.43;;;;;;;;;;5035399;28;20045;-64
2023/07/01 03:06:06;;;;;;;8.13;5.15;;;;;;;;;;5045592;28;20025;-64
2023/07/01 03:08:32;;;;;;;6.25;5.35;;;;;;;;;;5060881;28;20519;-65
2023/07/01 03:10:57;;;;;;;5.93;5.15;;;;;;;;;;5045096;28;20064;-65
2023/07/01 03:13:23;;;;;;;5.72;5.25;;;;;;;;;;5044202;28;20316;-65
2023/07/01 03:15:50;;;;;;;5.93;5.43;;;;;;;;;;5044967;28;20124;-65
2023/07/01 03:18:15;;;;;;;6.15;4.88;;;;;;;;;;5045907;28;20039;-65
2023/07/01 03:20:41;;;;;;;5.90;5.40;;;;;;;;;;5044279;28;20040;-64
2023/07/01 03:23:07;;;;;;;5.63;5.13;;;;;;;;;;5043849;28;20075;-65
2023/07/01 03:25:33;;;;;;;5.85;5.35;;;;;;;;;;5061171;28;20472;-65
2023/07/01 03:27:58;;;;;;;7.03;4.72;;;;;;;;;;5045829;28;20123;-65
2023/07/01 03:30:29;;;;;;;6.10;5.50;;;;;;;;;;5043696;28;20123;-64
2023/07/01 03:32:57;;;;;;;5.60;5.10;;;;;;;;;;5044186;28;20044;-65
2023/07/01 03:35:23;;;;;;;5.22;4.82;;;;;;;;;;5045647;28;20323;-64
2023/07/01 03:37:48;;;;;;;7.13;5.22;;;;;;;;;;5043177;28;20655;-64
2023/07/01 03:40:14;;;;;;;5.60;5.13;;;;;;;;;;5044716;28;20072;-65
2023/07/01 03:42:41;;;;;;;8.95;5.38;;;;;;;;;;5045883;28;20075;-65
2023/07/01 03:45:09;;;;;;;9.00;5.07;;;;;;;;;;5045527;28;20056;-64
2023/07/01 03:47:38;;;;;;;5.20;4.80;;;;;;;;;;5041591;28;20040;-65
2023/07/01 03:50:07;;;;;;;6.43;5.28;;;;;;;;;;5044970;28;20032;-65
2023/07/01 03:52:33;;;;;;;5.40;4.90;;;;;;;;;;5045487;28;20531;-65
2023/07/01 03:54:59;;;;;;;6.85;5.07;;;;;;;;;;5044107;28;20049;-65
2023/07/01 03:57:24;;;;;;;6.80;5.10;;;;;;;;;;5045212;28;20033;-65
2023/07/01 03:59:50;;;;;;;5.25;4.82;;;;;;;;;;5045058;28;20528;-65
2023/07/01 04:02:15;;;;;;;5.38;4.97;;;;;;;;;;5045176;28;20393;-64
2023/07/01 04:04:42;;;;;;;5.47;4.95;;;;;;;;;;5043499;28;20041;-65
2023/07/01 04:07:07;;;;;;;5.80;5.20;;;;;;;;;;5045306;28;20032;-65
2023/07/01 04:09:33;;;;;;;5.43;4.93;;;;;;;;;;5043670;28;20040;-65
2023/07/01 04:11:59;;;;;;;5.50;5.00;;;;;;;;;;5043710;28;20020;-65
2023/07/01 04:14:25;;;;;;;5.35;4.85;;;;;;;;;;5039297;28;20075;-64
2023/07/01 04:16:50;;;;;;;5.10;4.70;;;;;;;;;;5042167;28;20543;-65
2023/07/01 04:19:16;;;;;;;8.20;4.93;;;;;;;;;;5044600;28;20033;-65
2023/07/01 04:21:42;;;;;;;5.30;4.90;;;;;;;;;;5045129;28;20094;-65
2023/07/01 04:24:07;;;;;;;5.15;4.75;;;;;;;;;;5040572;28;20098;-65
2023/07/01 04:26:34;;;;;;;10.00;5.10;;;;;;;;;;5042070;28;20036;-65
2023/07/01 04:29:00;;;;;;;5.43;4.95;;;;;;;;;;5043483;28;20040;-65
2023/07/01 04:31:26;;;;;;;6.82;4.72;;;;;;;;;;5076774;28;20678;-65
2023/07/01 04:33:51;;;;;;;5.63;5.03;;;;;;;;;;5044851;28;20045;-64
2023/07/01 04:36:17;;;;;;;5.07;4.68;;;;;;;;;;5043532;28;20591;-64
2023/07/01 04:38:42;;;;;;;4.82;4.47;;;;;;;;;;5041974;28;20055;-64
2023/07/01 04:41:08;;;;;;;5.35;4.82;;;;;;;;;;5044285;28;20055;-65
2023/07/01 04:43:34;;;;;;;5.28;4.80;;;;;;;;;;5044733;28;20037;-65
2023/07/01 04:46:00;;;;;;;5.40;5.00;;;;;;;;;;5044580;28;20063;-65
2023/07/01 04:48:26;;;;;;;5.15;4.65;;;;;;;;;;5042832;28;20061;-65
2023/07/01 04:50:51;;;;;;;5.88;5.07;;;;;;;;;;5044463;28;20040;-65
2023/07/01 04:53:17;;;;;;;5.13;4.72;;;;;;;;;;5044487;28;20040;-65
2023/07/01 04:55:42;;;;;;;5.53;5.05;;;;;;;;;;5043277;28;20096;-65
2023/07/01 04:58:08;;;;;;;6.78;4.95;;;;;;;;;;5044205;28;20373;-65
2023/07/01 05:00:34;;;;;;;6.28;5.10;;;;;;;;;;5076393;28;20746;-65
2023/07/01 05:02:59;;;;;;;5.50;5.00;;;;;;;;;;5044249;28;20033;-65
2023/07/01 05:05:25;;;;;;;5.63;5.13;;;;;;;;;;5041349;28;20029;-65
2023/07/01 05:07:51;;;;;;;5.05;4.65;;;;;;;;;;5044348;28;20043;-65
2023/07/01 05:10:16;;;;;;;5.00;4.60;;;;;;;;;;5042578;28;20032;-65
2023/07/01 05:12:42;;;;;;;5.72;5.20;;;;;;;;;;5042953;28;20032;-65
2023/07/01 05:15:08;;;;;;;6.38;5.03;;;;;;;;;;5044003;28;20466;-65
2023/07/01 05:17:34;;;;;;;5.38;4.95;;;;;;;;;;5044173;28;20095;-65
2023/07/01 05:19:59;;;;;;;5.40;4.90;;;;;;;;;;5043580;28;20033;-65
2023/07/01 05:22:25;;;;;;;5.00;4.60;;;;;;;;;;5041661;28;20037;-65
2023/07/01 05:24:51;;;;;;;5.30;4.80;;;;;;;;;;5044129;28;20116;-65
2023/07/01 05:27:16;;;;;;;5.32;4.90;;;;;;;;;;5042476;28;20412;-65
2023/07/01 05:29:42;;;;;;;5.47;5.07;;;;;;;;;;5042220;28;20037;-65
2023/07/01 05:32:07;;;;;;;6.03;4.70;;;;;;;;;;5043877;28;20021;-65
2023/07/01 05:34:33;;;;;;;5.32;4.82;;;;;;;;;;5044044;28;20037;-65
2023/07/01 05:36:59;;;;;;;5.50;5.00;;;;;;;;;;5044600;28;20036;-65
2023/07/01 05:39:25;;;;;;;4.88;4.47;;;;;;;;;;5040933;28;20032;-65
2023/07/01 05:41:50;;;;;;;5.55;5.05;;;;;;;;;;5042690;28;20053;-65
2023/07/01 05:44:16;;;;;;;5.40;5.00;;;;;;;;;;5043727;28;20040;-65
2023/07/01 05:46:41;;;;;;;5.32;4.82;;;;;;;;;;5042452;28;20041;-65
2023/07/01 05:49:08;;;;;;;4.70;4.40;;;;;;;;;;5044250;28;20037;-66
2023/07/01 05:51:34;;;;;;;5.00;4.60;;;;;;;;;;5044676;28;20033;-65
2023/07/01 05:54:00;;;;;;;4.80;4.50;;;;;;;;;;5043398;28;20538;-65
2023/07/01 05:56:26;;;;;;;5.13;4.63;;;;;;;;;;5043582;28;20040;-65
2023/07/01 05:58:51;;;;;;;4.95;4.55;;;;;;;;;;5043051;28;20045;-65
2023/07/01 06:01:17;;;;;;;6.70;4.88;;;;;;;;;;5046131;28;20048;-65
2023/07/01 06:03:43;;;;;;;6.10;4.20;;;;;;;;;;5045077;28;20396;-65
2023/07/01 06:06:08;;;;;;;4.93;4.50;;;;;;;;;;5047072;28;20041;-65
2023/07/01 06:08:34;;;;;;;4.35;4.05;;;;;;;;;;5047139;28;21799;-65
2023/07/01 06:10:59;;;;;;;5.47;4.20;;;;;;;;;;5047381;28;20028;-65
2023/07/01 06:13:25;;;;;;;7.10;4.70;;;;;;;;;;5045553;28;20124;-65
2023/07/01 06:15:50;;;;;;;4.40;4.10;;;;;;;;;;5047132;28;20762;-65
2023/07/01 06:18:16;;;;;;;5.05;4.55;;;;;;;;;;5046865;28;20067;-65
2023/07/01 06:20:43;;;;;;;4.15;3.85;;;;;;;;;;5047304;28;20033;-65
2023/07/01 06:23:08;;;;;;;7.25;4.60;;;;;;;;;;5044325;28;20025;-65
2023/07/01 06:25:34;;;;;;;4.38;3.97;;;;;;;;;;5046540;28;20055;-65
2023/07/01 06:28:00;;;;;;;4.18;3.88;;;;;;;;;;5045031;28;20037;-65
2023/07/01 06:30:25;;;;;;;4.28;3.97;;;;;;;;;;5046514;28;20103;-65
2023/07/01 06:32:52;;;;;;;4.68;4.18;;;;;;;;;;5044778;28;20408;-65
2023/07/01 06:35:17;;;;;;;4.57;4.03;;;;;;;;;;5045936;28;20035;-65
2023/07/01 06:37:43;;;;;;;4.38;4.03;;;;;;;;;;5046644;28;20120;-67
2023/07/01 06:40:09;;;;;;;4.03;3.72;;;;;;;;;;5044766;28;20143;-65
2023/07/01 06:42:35;;;;;;;3.80;3.60;;;;;;;;;;5042294;28;20029;-66
2023/07/01 06:45:01;;;;;;;4.10;3.80;;;;;;;;;;5077763;28;20040;-65
2023/07/01 06:47:27;;;;;;;4.35;3.95;;;;;;;;;;5045322;28;20520;-65
2023/07/01 06:49:52;;;;;;;4.30;3.90;;;;;;;;;;5044348;28;20132;-65
2023/07/01 06:52:18;;;;;;;4.32;3.67;;;;;;;;;;5046351;28;20420;-65
2023/07/01 06:54:43;;;;;;;3.97;3.65;;;;;;;;;;5046713;28;20068;-65
2023/07/01 06:57:09;;;;;;;4.15;3.70;;;;;;;;;;5044931;28;20040;-65
2023/07/01 06:59:34;;;;;;;4.78;4.05;;;;;;;;;;5045727;28;20075;-65
2023/07/01 07:02:00;;;;;;;4.00;3.70;;;;;;;;;;5046472;28;20087;-65
2023/07/01 07:04:25;;;;;;;4.50;3.50;;;;;;;;;;5046072;28;20032;-65
2023/07/01 07:06:51;;;;;;;3.90;3.60;;;;;;;;;;5043180;28;20040;-66
2023/07/01 07:09:17;;;;;;;4.32;3.90;;;;;;;;;;5013641;28;20066;-66
2023/07/01 07:11:43;;;;;;;4.05;3.75;;;;;;;;;;5035961;28;20044;-66
2023/07/01 07:14:08;;;;;;;4.10;3.75;;;;;;;;;;5038829;28;20029;-66
2023/07/01 07:16:37;;;;;;;3.42;3.13;;;;;;;;;;5040808;28;20041;-66
2023/07/01 07:19:02;;;;;;;3.92;3.63;;;;;;;;;;5037107;28;20036;-66
2023/07/01 07:21:28;;;;;;;3.80;3.50;;;;;;;;;;5039549;28;20037;-66
2023/07/01 07:23:53;;;;;;;3.95;3.67;;;;;;;;;;5037797;28;20127;-67
2023/07/01 07:26:19;;;;;;;3.78;3.58;;;;;;;;;;5037512;28;20114;-66
2023/07/01 07:28:45;;;;;;;3.55;3.35;;;;;;;;;;5039496;28;20116;-66
2023/07/01 07:31:10;;;;;;;5.38;3.33;;;;;;;;;;5039451;28;20047;-66
2023/07/01 07:33:36;;;;;;;4.28;3.67;;;;;;;;;;5037785;28;20036;-66
2023/07/01 07:36:01;;;;;;;4.00;3.70;;;;;;;;;;5039388;28;20033;-67
2023/07/01 07:38:27;;;;;;;4.03;3.60;;;;;;;;;;5039500;28;20029;-66
2023/07/01 07:40:53;;;;;;;4.10;3.80;;;;;;;;;;5039655;28;20044;-66
2023/07/01 07:43:19;;;;;;;3.60;3.40;;;;;;;;;;5036957;28;20118;-67
2023/07/01 07:45:44;;;;;;;4.15;3.75;;;;;;;;;;5043090;28;20530;-69
2023/07/01 07:48:10;;;;;;;4.13;3.80;;;;;;;;;;5076455;28;20033;-66
2023/07/01 07:50:35;;;;;;;4.28;3.72;;;;;;;;;;5045370;28;20033;-66
2023/07/01 07:53:03;;;;;;;3.88;3.60;;;;;;;;;;5044898;28;20094;-66
2023/07/01 07:55:33;;;;;;;4.85;4.00;;;;;;;;;;5042778;28;20559;-67
2023/07/01 07:58:02;;;;;;;5.18;3.83;;;;;;;;;;5045269;28;20571;-66
2023/07/01 08:00:28;;;;;;;4.28;3.95;;;;;;;;;;5043355;28;20770;-67
2023/07/01 08:02:54;;;;;;;4.28;3.90;;;;;;;;;;5043698;28;20159;-66
2023/07/01 08:05:21;;;;;;;4.40;3.47;;;;;;;;;;5044581;28;20029;-67
2023/07/01 08:07:47;;;;;;;4.53;3.72;;;;;;;;;;5044866;28;20052;-67
2023/07/01 08:10:15;;;;;;;4.15;3.78;;;;;;;;;;5044001;28;20048;-67
2023/07/01 08:12:40;;;;;;;3.88;3.67;;;;;;;;;;5039744;28;20041;-67
2023/07/01 08:15:06;;;;;;;3.92;3.63;;;;;;;;;;5044697;28;20662;-67
2023/07/01 08:17:32;;;;;;;4.25;3.95;;;;;;;;;;5043832;28;20028;-67
2023/07/01 08:19:58;;;;;;;3.80;3.50;;;;;;;;;;5044624;28;20052;-67
2023/07/01 08:22:24;;;;;;;4.07;3.58;;;;;;;;;;5038760;28;20084;-67
2023/07/01 08:24:49;;;;;;;4.10;3.72;;;;;;;;;;5044495;28;20488;-67
2023/07/01 08:27:15;;;;;;;4.00;3.70;;;;;;;;;;5044142;28;20041;-67
2023/07/01 08:29:41;;;;;;;5.15;4.10;;;;;;;;;;5044295;28;20037;-67
2023/07/01 08:32:07;;;;;;;4.30;4.00;;;;;;;;;;5041932;28;20037;-66
2023/07/01 08:34:37;;;;;;;4.00;3.70;;;;;;;;;;5044456;28;20040;-66
2023/07/01 08:37:02;;;;;;;4.32;3.90;;;;;;;;;;5044356;28;20036;-66
2023/07/01 08:39:28;;;;;;;4.15;3.90;;;;;;;;;;5044098;28;20033;-67
2023/07/01 08:42:02;;;;;;;5.90;3.72;;;;;;;;;;5042906;28;20037;-66
2023/07/01 08:44:28;;;;;;;4.07;3.80;;;;;;;;;;5044252;28;20040;-66
2023/07/01 08:46:55;;;;;;;4.10;3.80;;;;;;;;;;5044175;28;20037;-66
2023/07/01 08:49:22;;;;;;;4.45;4.15;;;;;;;;;;5042680;28;20075;-66
2023/07/01 08:51:57;;;;;;;4.32;4.03;;;;;;;;;;5043825;28;21024;-67
2023/07/01 08:54:24;;;;;;;5.60;3.88;;;;;;;;;;5042706;28;20040;-66
2023/07/01 08:56:50;;;;;;;3.67;3.47;;;;;;;;;;5043846;28;20045;-68
2023/07/01 08:59:17;;;;;;;5.82;4.28;;;;;;;;;;5042869;28;20073;-68
2023/07/01 09:01:43;;;;;;;4.25;3.90;;;;;;;;;;5043955;28;20582;-67
2023/07/01 09:04:09;;;;;;;6.95;4.40;;;;;;;;;;5044232;28;20040;-68
2023/07/01 09:06:34;;;;;;;4.10;3.80;;;;;;;;;;5042332;28;20060;-68
2023/07/01 09:09:03;;;;;;;3.80;3.60;;;;;;;;;;5040633;28;20040;-65
2023/07/01 09:11:29;;;;;;;4.28;3.97;;;;;;;;;;5043417;28;20108;-65
2023/07/01 09:13:56;;;;;;;4.60;4.28;;;;;;;;;;5039497;28;20187;-66
2023/07/01 09:16:36;;;;;;;4.50;4.13;;;;;;;;;;5042651;28;20029;-66
2023/07/01 09:19:21;;;;;;;3.97;3.78;;;;;;;;;;5042264;28;20535;-67
2023/07/01 09:21:46;;;;;;;4.28;3.97;;;;;;;;;;5043470;28;20041;-66
2023/07/01 09:24:12;;;;;;;4.63;4.22;;;;;;;;;;5041308;28;20398;-67
2023/07/01 09:26:38;;;;;;;3.60;3.40;;;;;;;;;;5042973;28;20112;-66
2023/07/01 09:29:09;;;;;;;4.40;4.03;;;;;;;;;;5042255;28;20037;-67
2023/07/01 09:31:48;;;;;;;4.20;3.92;;;;;;;;;;5041408;28;20033;-67
2023/07/01 09:34:16;;;;;;;3.80;3.60;;;;;;;;;;5038173;28;20484;-67
2023/07/01 09:36:42;;;;;;;3.80;3.60;;;;;;;;;;5045271;28;20094;-67
2023/07/01 09:39:08;;;;;;;3.85;3.63;;;;;;;;;;5044127;28;20030;-67
2023/07/01 09:41:34;;;;;;;4.07;3.88;;;;;;;;;;5044164;28;20183;-67
2023/07/01 09:44:00;;;;;;;4.50;4.20;;;;;;;;;;5047382;22;20046;-67
2023/07/01 09:46:41;;;;;;;3.92;3.60;;;;;;;;;;5034662;28;20040;-67
2023/07/01 09:49:07;;;;;;;4.00;3.70;;;;;;;;;;5007150;28;20416;-67
2023/07/01 09:51:47;;;;;;;4.07;3.88;;;;;;;;;;5005832;28;20904;-67
2023/07/01 09:54:29;;;;;;;3.88;3.67;;;;;;;;;;5011658;28;20132;-67
2023/07/01 09:56:57;;;;;;;4.10;3.70;;;;;;;;;;5004944;28;20044;-67
2023/07/01 09:59:24;;;;;;;3.95;3.70;;;;;;;;;;5011699;28;20053;-67
2023/07/01 10:01:55;;;;;;;4.30;4.00;;;;;;;;;;5011782;28;20033;-67
2023/07/01 10:04:25;;;;;;;4.07;3.88;;;;;;;;;;5020919;28;20034;-67
2023/07/01 10:06:50;;;;;;;4.13;3.80;;;;;;;;;;5005625;28;20030;-67
2023/07/01 10:09:16;;;;;;;4.35;3.85;;;;;;;;;;5002195;28;20092;-67
2023/07/01 10:11:42;;;;;;;4.10;3.70;;;;;;;;;;5012285;28;20140;-67
2023/07/01 10:14:10;;;;;;;4.65;3.47;;;;;;;;;;5009496;28;20053;-67
2023/07/01 10:16:47;;;;;;;4.40;3.60;;;;;;;;;;5012860;28;20044;-67
2023/07/01 10:19:29;;;;;;;3.90;3.70;;;;;;;;;;5009397;28;20037;-67
2023/07/01 10:22:29;;;;;;;4.00;3.70;;;;;;;;;;5006388;28;20045;-67
2023/07/01 10:24:58;;;;;;;4.05;3.72;;;;;;;;;;5008958;28;20149;-67
2023/07/01 10:27:44;;;;;;;3.78;3.58;;;;;;;;;;5009811;28;20042;-67
2023/07/01 10:30:14;;;;;;;3.60;3.40;;;;;;;;;;5008603;28;20176;-66
2023/07/01 10:32:41;;;;;;;3.90;3.70;;;;;;;;;;4996598;28;20022;-66
2023/07/01 10:35:11;;;;;;;3.70;3.40;;;;;;;;;;5002045;28;20061;-67
2023/07/01 10:37:37;;;;;;;3.50;3.30;;;;;;;;;;5006607;28;20444;-66
2023/07/01 10:40:24;;;;;;;4.57;3.60;;;;;;;;;;5008521;28;20677;-66
2023/07/01 10:42:49;;;;;;;3.80;3.60;;;;;;;;;;4995256;28;20056;-66
2023/07/01 10:45:15;;;;;;;3.92;3.63;;;;;;;;;;4995452;28;20029;-67
2023/07/01 10:47:48;;;;;;;4.55;3.50;;;;;;;;;;5006598;28;20048;-66
2023/07/01 10:50:15;;;;;;;3.63;3.40;;;;;;;;;;5009336;28;20112;-67
2023/07/01 10:52:56;;;;;;;4.63;3.40;;;;;;;;;;5008664;28;20038;-67
2023/07/01 10:55:46;;;;;;;3.35;3.15;;;;;;;;;;5008183;28;20037;-67
2023/07/01 10:58:21;;;;;;;4.45;2.80;;;;;;;;;;5010512;28;20113;-67
2023/07/01 11:01:31;;;;;;;3.25;2.95;;;;;;;;;;4997828;28;20026;-66
2023/07/01 11:03:57;;;;;;;3.67;2.50;;;;;;;;;;5005686;28;20102;-67
2023/07/01 11:06:23;;;;;;;3.30;3.10;;;;;;;;;;5000849;28;20033;-67
2023/07/01 11:08:53;;;;;;;2.78;2.55;;;;;;;;;;5005166;28;20080;-67
2023/07/01 11:11:27;;;;;;;6.25;3.00;;;;;;;;;;5002927;28;20513;-67
2023/07/01 11:14:12;;;;;;;2.83;2.63;;;;;;;;;;5002010;28;20044;-67
2023/07/01 11:16:39;;;;;;;3.40;3.10;;;;;;;;;;5004848;28;20437;-67
2023/07/01 11:19:15;;;;;;;3.05;2.78;;;;;;;;;;5000953;28;20650;-67
2023/07/01 11:21:43;;;;;;;3.30;3.00;;;;;;;;;;5003111;28;20034;-67
2023/07/01 11:24:09;;;;;;;3.58;2.75;;;;;;;;;;5005398;28;20037;-67
2023/07/01 11:26:41;;;;;;;4.20;3.40;;;;;;;;;;5011841;28;20398;-67
2023/07/01 11:29:17;;;;;;;3.40;3.10;;;;;;;;;;5000146;28;20034;-67
2023/07/01 11:31:43;;;;;;;4.82;2.90;;;;;;;;;;5000578;28;20385;-67
2023/07/01 11:34:15;;;;;;;3.55;3.25;;;;;;;;;;5002578;28;20034;-67
2023/07/01 11:36:48;;;;;;;4.45;3.47;;;;;;;;;;5013679;28;20047;-67
2023/07/01 11:39:15;;;;;;;3.80;3.30;;;;;;;;;;5006179;28;20128;-67
2023/07/01 11:41:47;;;;;;;4.38;2.92;;;;;;;;;;5002174;28;20062;-67
2023/07/01 11:44:15;;;;;;;6.18;3.45;;;;;;;;;;5001004;28;20041;-67
2023/07/01 11:46:42;;;;;;;4.43;3.50;;;;;;;;;;5003948;28;20059;-66
2023/07/01 11:49:21;;;;;;;3.58;3.17;;;;;;;;;;5010455;28;20048;-67
2023/07/01 11:51:48;;;;;;;;;;;;;;;;;;5002205;28;20038;-66
2023/07/01 11:54:15;;;;;;;3.92;3.42;;;;;;;;;;4998479;28;20377;-66
2023/07/01 11:56:42;;;;;;;3.70;3.22;;;;;;;;;;5014468;28;20042;-66
2023/07/01 11:59:08;;;;;;;3.92;3.40;;;;;;;;;;5003745;28;20038;-66
2023/07/01 12:01:37;;;;;;;3.97;3.22;;;;;;;;;;5013333;28;20175;-67
2023/07/01 12:04:14;;;;;;;4.03;3.10;;;;;;;;;;5003958;28;20042;-66
2023/07/01 12:06:40;;;;;;;3.63;3.30;;;;;;;;;;5007209;28;20065;-66
2023/07/01 12:09:08;;;;;;;4.68;3.00;;;;;;;;;;5009201;28;20487;-66
2023/07/01 12:11:45;;;;;;;3.17;2.90;;;;;;;;;;4997455;28;20038;-67
2023/07/01 12:14:23;;;;;;;4.68;3.65;;;;;;;;;;5003729;28;20480;-67
2023/07/01 12:16:50;;;;;;;3.58;3.28;;;;;;;;;;5008251;28;20047;-67
2023/07/01 12:19:16;;;;;;;4.03;3.25;;;;;;;;;;5003455;28;20037;-66
2023/07/01 12:21:43;;;;;;;6.00;3.15;;;;;;;;;;5008229;28;20049;-66
2023/07/01 12:24:23;;;;;;;3.33;3.00;;;;;;;;;;5002458;28;20052;-67
2023/07/01 12:27:00;;;;;;;4.03;3.03;;;;;;;;;;5004462;28;20034;-66
2023/07/01 12:29:26;;;;;;;5.00;2.95;;;;;;;;;;5007527;28;20505;-66
2023/07/01 12:31:59;;;;;;;3.50;3.20;;;;;;;;;;4998420;28;20044;-66
2023/07/01 12:34:24;;;;;;;12.75;3.55;;;;;;;;;;4997937;28;20362;-66
2023/07/01 12:36:53;;;;;;;3.17;2.75;;;;;;;;;;5009347;28;20550;-66
2023/07/01 12:39:19;;;;;;;2.60;2.40;;;;;;;;;;5004380;28;20555;-67
2023/07/01 12:41:52;;;;;;;3.13;2.47;;;;;;;;;;5000913;28;20038;-66
2023/07/01 12:44:17;;;;;;;3.10;2.80;;;;;;;;;;5020899;28;20033;-66
2023/07/01 12:46:44;;;;;;;3.03;2.80;;;;;;;;;;5041748;28;20047;-67
2023/07/01 12:49:11;;;;;;;3.42;2.67;;;;;;;;;;5014797;28;20037;-66
2023/07/01 12:51:37;;;;;;;2.53;2.42;;;;;;;;;;5001294;28;20121;-66
2023/07/01 12:54:06;;;;;;;2.70;2.50;;;;;;;;;;5005011;28;20488;-66
2023/07/01 12:56:32;;;;;;;;;;;;;;;;;;5006412;28;20033;-67
2023/07/01 12:58:58;;;;;;;3.40;2.85;;;;;;;;;;5000157;28;20306;-66
2023/07/01 13:01:23;;;;;;;2.55;2.42;;;;;;;;;;5000094;28;20066;-66
2023/07/01 13:03:49;;;;;;;3.10;2.53;;;;;;;;;;5004384;28;20048;-67
2023/07/01 13:06:27;;;;;;;2.60;2.40;;;;;;;;;;5000118;28;20033;-66
2023/07/01 13:08:58;;;;;;;2.83;2.58;;;;;;;;;;5000448;28;20096;-67
2023/07/01 13:11:26;;;;;;;2.45;2.35;;;;;;;;;;5000538;28;20045;-66
2023/07/01 13:13:52;;;;;;;4.05;2.20;;;;;;;;;;5010523;28;20059;-66
2023/07/01 13:16:28;;;;;;;4.63;2.60;;;;;;;;;;5001110;28;20514;-67
2023/07/01 13:18:57;;;;;;;2.80;2.60;;;;;;;;;;5004078;28;20398;-66
2023/07/01 13:21:22;;;;;;;2.67;2.50;;;;;;;;;;5003040;28;20149;-66
2023/07/01 13:23:48;;;;;;;2.80;2.60;;;;;;;;;;5008123;28;20071;-66
2023/07/01 13:26:14;;;;;;;2.42;2.22;;;;;;;;;;5002551;28;20064;-66
2023/07/01 13:28:40;;;;;;;2.70;2.50;;;;;;;;;;5012225;28;20044;-66
2023/07/01 13:31:05;;;;;;;2.88;2.67;;;;;;;;;;5010786;28;20038;-66
2023/07/01 13:33:31;;;;;;;2.58;2.38;;;;;;;;;;5012583;28;20029;-66
2023/07/01 13:35:59;;;;;;;5.78;2.67;;;;;;;;;;4999800;28;21571;-67
2023/07/01 13:38:25;;;;;;;2.78;2.60;;;;;;;;;;5012696;28;20052;-66
2023/07/01 13:40:51;;;;;;;2.25;2.15;;;;;;;;;;5000649;28;20056;-66
2023/07/01 13:43:19;;;;;;;3.28;2.50;;;;;;;;;;5004909;28;20049;-66
2023/07/01 13:45:45;;;;;;;3.33;2.53;;;;;;;;;;5012979;28;20045;-67
2023/07/01 13:48:35;;;;;;;2.38;2.28;;;;;;;;;;5004486;28;20045;-66
2023/07/01 13:51:01;;;;;;;2.50;2.30;;;;;;;;;;5009054;28;20030;-66
2023/07/01 13:53:29;;;;;;;2.60;2.40;;;;;;;;;;5004648;28;20026;-67
2023/07/01 13:55:55;;;;;;;3.72;2.65;;;;;;;;;;5016485;28;20627;-66
2023/07/01 13:58:21;;;;;;;3.55;2.40;;;;;;;;;;5005270;28;20050;-66
2023/07/01 14:00:49;;;;;;;2.33;2.22;;;;;;;;;;4997344;28;20417;-66
2023/07/01 14:03:20;;;;;;;2.30;2.20;;;;;;;;;;5010192;28;20037;-66
2023/07/01 14:05:48;;;;;;;2.42;2.28;;;;;;;;;;4997827;28;20056;-66
2023/07/01 14:08:14;;;;;;;2.33;2.22;;;;;;;;;;5002053;28;20381;-66
2023/07/01 14:10:41;;;;;;;2.35;2.25;;;;;;;;;;4992969;28;20049;-67
2023/07/01 14:13:12;;;;;;;3.15;2.60;;;;;;;;;;5009069;28;20124;-66
2023/07/01 14:15:40;;;;;;;2.80;2.60;;;;;;;;;;5020710;28;20083;-66
2023/07/01 14:18:18;;;;;;;2.63;2.45;;;;;;;;;;5010947;28;20420;-66
2023/07/01 14:20:51;;;;;;;16.70;15.60;;;;;;;;;;5013886;28;20524;-67
2023/07/01 14:23:33;;;;;;;2.97;2.78;;;;;;;;;;5007823;28;20122;-66
2023/07/01 14:25:59;;;;;;;2.58;2.40;;;;;;;;;;5000900;28;20200;-66
2023/07/01 14:28:25;;;;;;;2.47;2.28;;;;;;;;;;5008954;28;20592;-66
2023/07/01 14:31:07;;;;;;;23.10;21.25;;;;;;;;;;4993966;28;20038;-66
2023/07/01 14:33:54;;;;;;;2.70;2.50;;;;;;;;;;4988895;28;20026;-67
2023/07/01 14:36:28;;;;;;;2.55;2.38;;;;;;;;;;5003538;28;20583;-67
2023/07/01 14:38:55;;;;;;;3.10;2.90;;;;;;;;;;5002658;28;20092;-67
2023/07/01 14:41:22;;;;;;;2.55;2.40;;;;;;;;;;5000258;28;20042;-66
2023/07/01 14:44:00;;;;;;;2.72;2.60;;;;;;;;;;5024359;28;20072;-66
2023/07/01 14:46:31;;;;;;;2.53;2.42;;;;;;;;;;5008682;28;20129;-67
2023/07/01 14:48:56;;;;;;;2.40;2.30;;;;;;;;;;4999700;28;20065;-67